createdAt,value
2017-05-16T00:00:17.855Z,62.50
2017-05-16T00:02:44.854Z,63.20
2017-05-16T00:05:11.845Z,62.00
2017-05-16T00:07:38.834Z,61.70
2017-05-16T00:10:05.803Z,62.00
2017-05-16T00:12:33.559Z,62.60
2017-05-16T00:15:00.530Z,62.40
2017-05-16T00:17:28.261Z,62.30
2017-05-16T00:19:55.238Z,62.30
2017-05-16T00:22:22.948Z,62.60
2017-05-16T00:24:49.945Z,62.80
2017-05-16T00:27:17.674Z,62.70
2017-05-16T00:29:44.676Z,62.70
2017-05-16T00:32:11.647Z,62.90
2017-05-16T00:34:38.670Z,62.50
2017-05-16T00:37:05.671Z,62.60
2017-05-16T00:39:32.658Z,62.70
2017-05-16T00:41:59.622Z,62.70
2017-05-16T00:44:26.622Z,62.70
2017-05-16T00:46:54.326Z,62.30
2017-05-16T00:49:21.306Z,62.30
2017-05-16T00:51:48.302Z,62.20
2017-05-16T00:54:15.286Z,62.60
2017-05-16T00:56:42.278Z,62.00
2017-05-16T00:59:09.994Z,62.20
2017-05-16T01:01:36.993Z,62.40
2017-05-16T01:04:04.008Z,62.30
2017-05-16T01:06:31.007Z,62.50
2017-05-16T01:08:57.978Z,62.30
2017-05-16T01:11:25.735Z,62.00
2017-05-16T01:13:52.710Z,61.70
2017-05-16T01:16:19.738Z,61.50
2017-05-16T01:18:46.749Z,61.90
2017-05-16T01:21:13.736Z,61.90
2017-05-16T01:23:41.482Z,62.00
2017-05-16T01:26:09.197Z,62.20
2017-05-16T01:28:36.193Z,62.00
2017-05-16T01:31:03.921Z,61.50
2017-05-16T01:33:30.941Z,62.50
2017-05-16T01:35:57.922Z,62.90
2017-05-16T01:38:24.918Z,63.00
2017-05-16T01:40:51.890Z,62.80
2017-05-16T01:43:18.884Z,62.70
2017-05-16T01:45:45.865Z,62.80
2017-05-16T01:48:12.858Z,62.90
2017-05-16T01:50:39.918Z,62.80
2017-05-16T01:53:06.929Z,62.90
2017-05-16T01:55:33.904Z,63.20
2017-05-16T01:58:00.869Z,62.60
2017-05-16T02:00:28.602Z,62.90
2017-05-16T02:02:55.577Z,62.40
2017-05-16T02:05:23.342Z,63.10
2017-05-16T02:07:51.066Z,62.60
2017-05-16T02:10:18.075Z,62.60
2017-05-16T02:12:45.034Z,62.60
2017-05-16T02:15:12.215Z,62.80
2017-05-16T02:17:39.931Z,62.90
2017-05-16T02:20:06.903Z,62.70
2017-05-16T02:22:33.893Z,62.60
2017-05-16T02:25:00.894Z,62.50
2017-05-16T02:27:27.877Z,62.50
2017-05-16T02:29:55.598Z,62.20
2017-05-16T02:32:22.591Z,61.70
2017-05-16T02:34:49.563Z,61.50
2017-05-16T02:37:16.555Z,61.80
2017-05-16T02:39:43.525Z,62.30
2017-05-16T02:42:10.529Z,63.10
2017-05-16T02:44:37.503Z,62.70
2017-05-16T02:47:05.210Z,62.90
2017-05-16T02:49:32.205Z,63.00
2017-05-16T02:51:59.181Z,63.20
2017-05-16T02:54:26.177Z,62.90
2017-05-16T02:56:53.157Z,63.10
2017-05-16T02:59:20.893Z,62.60
2017-05-16T03:01:47.874Z,62.60
2017-05-16T03:04:15.649Z,62.60
2017-05-16T03:06:43.366Z,62.60
2017-05-16T03:09:10.343Z,62.70
2017-05-16T03:11:38.153Z,62.20
2017-05-16T03:14:05.140Z,62.60
2017-05-16T03:16:32.134Z,61.90
2017-05-16T03:18:59.120Z,62.30
2017-05-16T03:21:26.849Z,62.20
2017-05-16T03:23:53.834Z,62.00
2017-05-16T03:26:20.834Z,61.80
2017-05-16T03:28:47.823Z,63.40
2017-05-16T03:31:15.575Z,62.20
2017-05-16T03:33:42.545Z,62.60
2017-05-16T03:36:09.511Z,62.90
2017-05-16T03:38:36.556Z,62.60
2017-05-16T03:41:03.523Z,63.00
2017-05-16T03:43:30.510Z,62.90
2017-05-16T03:45:58.220Z,62.60
2017-05-16T03:48:25.221Z,62.60
2017-05-16T03:50:52.941Z,62.70
2017-05-16T03:53:19.930Z,62.30
2017-05-16T03:55:46.900Z,62.60
2017-05-16T03:58:13.893Z,62.20
2017-05-16T04:00:41.662Z,62.00
2017-05-16T04:03:09.396Z,62.50
2017-05-16T04:05:36.394Z,62.40
2017-05-16T04:08:03.378Z,62.40
2017-05-16T04:10:30.355Z,62.70
2017-05-16T04:12:57.334Z,62.90
2017-05-16T04:15:24.302Z,62.70
2017-05-16T04:17:51.277Z,62.60
2017-05-16T04:20:18.273Z,62.90
2017-05-16T04:22:45.239Z,63.00
2017-05-16T04:25:12.986Z,62.60
2017-05-16T04:27:39.962Z,62.40
2017-05-16T04:30:06.967Z,63.40
2017-05-16T04:32:33.933Z,62.80
2017-05-16T04:35:01.674Z,63.10
2017-05-16T04:37:27.906Z,63.20
2017-05-16T04:39:54.919Z,63.00
2017-05-16T04:42:21.893Z,63.30
2017-05-16T04:44:49.608Z,63.10
2017-05-16T04:47:16.601Z,63.10
2017-05-16T04:49:43.562Z,63.60
2017-05-16T04:52:11.294Z,63.60
2017-05-16T04:54:38.262Z,63.50
2017-05-16T04:57:05.275Z,63.20
2017-05-16T04:59:32.265Z,63.60
2017-05-16T05:02:00.002Z,64.00
2017-05-16T05:04:26.994Z,64.00
2017-05-16T05:06:53.982Z,64.80
2017-05-16T05:09:21.369Z,63.80
2017-05-16T05:11:49.108Z,64.60
2017-05-16T05:14:16.089Z,63.80
2017-05-16T05:16:43.793Z,63.80
2017-05-16T05:19:10.790Z,63.60
2017-05-16T05:21:38.510Z,64.50
2017-05-16T05:24:05.501Z,63.70
2017-05-16T05:26:33.206Z,63.70
2017-05-16T05:29:00.200Z,63.90
2017-05-16T05:31:27.169Z,63.90
2017-05-16T05:33:54.173Z,64.20
2017-05-16T05:36:21.145Z,63.60
2017-05-16T05:38:48.133Z,64.20
2017-05-16T05:41:15.122Z,64.00
2017-05-16T05:43:42.142Z,64.50
2017-05-16T05:46:09.119Z,63.90
2017-05-16T05:48:36.107Z,63.70
2017-05-16T05:51:03.086Z,64.00
2017-05-16T05:53:30.089Z,63.70
2017-05-16T05:55:57.061Z,63.70
2017-05-16T05:58:24.037Z,64.50
2017-05-16T06:00:51.025Z,64.20
2017-05-16T06:03:17.993Z,64.50
2017-05-16T06:05:45.020Z,64.40
2017-05-16T06:08:11.984Z,63.90
2017-05-16T06:10:38.972Z,64.10
2017-05-16T06:13:05.938Z,63.20
2017-05-16T06:15:33.687Z,64.80
2017-05-16T06:18:02.030Z,63.90
2017-05-16T06:20:29.003Z,63.90
2017-05-16T06:22:55.997Z,64.00
2017-05-16T06:25:22.974Z,64.10
2017-05-16T06:27:49.972Z,63.90
2017-05-16T06:30:17.674Z,63.50
2017-05-16T06:32:44.662Z,62.80
2017-05-16T06:35:11.624Z,62.30
2017-05-16T06:37:39.363Z,62.60
2017-05-16T06:40:06.325Z,62.40
2017-05-16T06:42:33.316Z,62.60
2017-05-16T06:45:00.285Z,62.60
2017-05-16T06:47:28.011Z,62.80
2017-05-16T06:49:54.987Z,61.50
2017-05-16T06:52:22.722Z,60.70
2017-05-16T06:54:49.691Z,60.40
2017-05-16T06:57:17.404Z,60.90
2017-05-16T06:59:44.394Z,60.60
2017-05-16T07:02:11.358Z,59.90
2017-05-16T07:04:39.113Z,59.60
2017-05-16T07:07:06.089Z,59.30
2017-05-16T07:09:33.068Z,59.10
2017-05-16T07:12:00.042Z,59.10
2017-05-16T07:14:27.034Z,58.70
2017-05-16T07:16:53.997Z,58.70
2017-05-16T07:19:21.745Z,59.20
2017-05-16T07:21:48.703Z,59.00
2017-05-16T07:24:16.406Z,59.20
2017-05-16T07:26:43.399Z,59.20
2017-05-16T07:29:10.366Z,59.60
2017-05-16T07:31:38.140Z,59.50
2017-05-16T07:34:05.840Z,58.80
2017-05-16T07:36:32.825Z,59.10
2017-05-16T07:39:00.554Z,59.00
2017-05-16T07:41:27.539Z,58.90
2017-05-16T07:43:55.242Z,59.30
2017-05-16T07:46:22.234Z,57.50
2017-05-16T07:48:49.200Z,55.90
2017-05-16T07:51:16.915Z,55.60
2017-05-16T07:53:43.902Z,55.10
2017-05-16T07:56:11.601Z,55.40
2017-05-16T07:58:38.588Z,55.10
2017-05-16T08:01:05.557Z,52.00
2017-05-16T08:03:33.282Z,51.80
2017-05-16T08:06:00.266Z,52.70
2017-05-16T08:08:27.998Z,52.50
2017-05-16T08:10:54.961Z,51.90
2017-05-16T08:13:21.972Z,51.50
2017-05-16T08:15:48.945Z,49.10
2017-05-16T08:18:15.912Z,48.80
2017-05-16T08:20:43.638Z,48.50
2017-05-16T08:23:10.613Z,48.20
2017-05-16T08:25:37.597Z,48.20
2017-05-16T08:28:04.574Z,50.00
2017-05-16T08:30:31.562Z,47.70
2017-05-16T08:32:58.532Z,47.80
2017-05-16T08:35:25.521Z,47.60
2017-05-16T08:37:52.498Z,47.30
2017-05-16T08:40:19.494Z,47.60
2017-05-16T08:42:46.465Z,47.70
2017-05-16T08:45:13.435Z,48.80
2017-05-16T08:47:40.430Z,47.20
2017-05-16T08:50:07.406Z,46.50
2017-05-16T08:52:34.406Z,47.00
2017-05-16T08:55:01.376Z,45.60
2017-05-16T08:57:28.359Z,47.10
2017-05-16T08:59:56.067Z,44.80
2017-05-16T09:02:23.059Z,44.70
2017-05-16T09:04:50.065Z,43.20
2017-05-16T09:07:17.075Z,44.40
2017-05-16T09:09:44.789Z,45.10
2017-05-16T09:12:11.783Z,45.80
2017-05-16T09:14:39.499Z,45.20
2017-05-16T09:17:06.467Z,45.30
2017-05-16T09:19:33.465Z,42.90
2017-05-16T09:22:00.434Z,42.80
2017-05-16T09:24:27.434Z,44.00
2017-05-16T09:26:54.402Z,45.20
2017-05-16T09:29:21.386Z,44.40
2017-05-16T09:31:48.363Z,43.80
2017-05-16T09:34:15.365Z,44.20
2017-05-16T09:36:42.328Z,43.90
2017-05-16T09:39:10.059Z,44.70
2017-05-16T09:41:37.033Z,43.50
2017-05-16T09:44:04.003Z,42.90
2017-05-16T09:46:30.998Z,44.90
2017-05-16T09:48:57.970Z,44.30
2017-05-16T09:51:25.700Z,43.00
2017-05-16T09:53:52.663Z,41.90
2017-05-16T09:56:19.661Z,42.10
2017-05-16T09:58:46.632Z,42.40
2017-05-16T10:01:13.632Z,41.70
2017-05-16T10:03:41.375Z,42.60
2017-05-16T10:06:08.367Z,41.20
2017-05-16T10:08:35.340Z,40.70
2017-05-16T10:11:02.349Z,40.40
2017-05-16T10:13:29.322Z,41.00
2017-05-16T10:15:56.289Z,40.90
2017-05-16T10:18:23.278Z,39.70
2017-05-16T10:20:51.010Z,41.20
2017-05-16T10:23:18.000Z,41.70
2017-05-16T10:25:44.975Z,40.80
2017-05-16T10:28:11.969Z,39.20
2017-05-16T10:30:39.673Z,38.40
2017-05-16T10:33:06.665Z,36.40
2017-05-16T10:38:00.132Z,37.60
2017-05-16T10:40:27.111Z,38.40
2017-05-16T10:42:54.844Z,39.20
2017-05-16T10:45:21.810Z,38.20
2017-05-16T10:47:48.784Z,36.90
2017-05-16T10:50:15.779Z,36.90
2017-05-16T10:52:42.749Z,35.50
2017-05-16T10:55:10.486Z,36.70
2017-05-16T10:57:37.458Z,37.80
2017-05-16T11:00:04.448Z,37.00
2017-05-16T11:02:31.410Z,37.20
2017-05-16T11:04:59.178Z,37.90
2017-05-16T11:07:26.886Z,38.90
2017-05-16T11:09:53.854Z,38.50
2017-05-16T11:12:20.844Z,37.90
2017-05-16T11:14:47.815Z,37.40
2017-05-16T11:17:14.821Z,37.40
2017-05-16T11:19:42.595Z,37.10
2017-05-16T11:22:09.588Z,38.60
2017-05-16T11:24:36.554Z,36.50
2017-05-16T11:27:03.545Z,36.80
2017-05-16T11:29:30.513Z,37.80
2017-05-16T11:31:57.498Z,37.60
2017-05-16T11:34:24.465Z,36.90
2017-05-16T11:36:52.214Z,36.60
2017-05-16T11:39:19.924Z,35.60
2017-05-16T11:41:46.887Z,35.80
2017-05-16T11:44:13.885Z,36.90
2017-05-16T11:46:41.601Z,36.50
2017-05-16T11:49:08.582Z,36.90
2017-05-16T11:51:36.294Z,36.80
2017-05-16T11:54:03.282Z,37.10
2017-05-16T11:56:30.250Z,34.90
2017-05-16T11:58:57.237Z,35.70
2017-05-16T12:01:24.218Z,35.00
2017-05-16T12:03:51.237Z,36.20
2017-05-16T12:06:18.205Z,38.20
2017-05-16T12:08:45.926Z,37.50
2017-05-16T12:11:12.897Z,36.50
2017-05-16T12:13:39.881Z,36.60
2017-05-16T12:16:06.849Z,36.00
2017-05-16T12:18:33.854Z,37.30
2017-05-16T12:21:01.561Z,37.50
2017-05-16T12:23:28.521Z,37.20
2017-05-16T12:25:55.506Z,37.10
2017-05-16T12:28:22.470Z,38.30
2017-05-16T12:30:49.472Z,38.80
2017-05-16T12:33:16.442Z,37.60
2017-05-16T12:35:43.432Z,38.40
2017-05-16T12:38:11.146Z,39.10
2017-05-16T12:40:38.148Z,39.10
2017-05-16T12:43:05.869Z,39.10
2017-05-16T12:45:32.849Z,37.10
2017-05-16T12:48:00.588Z,36.60
2017-05-16T12:50:27.547Z,37.00
2017-05-16T12:52:54.536Z,38.20
2017-05-16T12:55:21.520Z,38.30
2017-05-16T12:57:48.510Z,36.20
2017-05-16T13:00:16.226Z,37.10
2017-05-16T13:02:43.217Z,37.60
2017-05-16T13:05:10.946Z,37.20
2017-05-16T13:07:37.930Z,37.60
2017-05-16T13:10:04.904Z,36.90
2017-05-16T13:12:31.891Z,37.10
2017-05-16T13:14:58.874Z,37.00
2017-05-16T13:17:25.849Z,38.00
2017-05-16T13:19:52.841Z,36.90
2017-05-16T13:22:19.810Z,37.30
2017-05-16T13:24:46.855Z,38.90
2017-05-16T13:27:14.553Z,38.60
2017-05-16T13:29:41.550Z,37.70
2017-05-16T13:32:09.272Z,38.10
2017-05-16T13:34:36.267Z,38.40
2017-05-16T13:37:03.974Z,39.40
2017-05-16T13:39:30.986Z,37.60
2017-05-16T13:41:57.962Z,38.30
2017-05-16T13:44:24.943Z,39.00
2017-05-16T13:46:51.935Z,39.00
2017-05-16T13:49:18.903Z,39.00
2017-05-16T13:51:46.637Z,40.40
2017-05-16T13:54:13.598Z,38.80
2017-05-16T13:56:41.332Z,39.30
2017-05-16T13:59:08.296Z,38.70
2017-05-16T14:01:35.289Z,38.90
2017-05-16T14:04:02.278Z,38.10
2017-05-16T14:06:29.283Z,38.20
2017-05-16T14:08:56.254Z,38.40
2017-05-16T14:11:23.231Z,38.60
2017-05-16T14:13:50.229Z,37.70
2017-05-16T14:16:17.205Z,38.40
2017-05-16T14:18:44.379Z,38.50
2017-05-16T14:21:12.095Z,38.10
2017-05-16T14:23:39.083Z,37.20
2017-05-16T14:26:06.041Z,37.60
2017-05-16T14:28:33.763Z,38.30
2017-05-16T14:31:00.731Z,38.40
2017-05-16T14:33:27.726Z,38.40
2017-05-16T14:35:54.700Z,37.70
2017-05-16T14:38:21.683Z,37.80
2017-05-16T14:40:49.394Z,38.10
2017-05-16T14:43:16.390Z,37.80
2017-05-16T14:45:44.096Z,38.00
2017-05-16T14:48:11.086Z,37.30
2017-05-16T14:50:38.054Z,37.80
2017-05-16T14:53:05.796Z,38.00
2017-05-16T14:55:32.763Z,37.10
2017-05-16T14:58:00.514Z,37.00
2017-05-16T15:00:27.477Z,37.60
2017-05-16T15:02:54.445Z,37.20
2017-05-16T15:05:21.460Z,37.20
2017-05-16T15:07:49.164Z,36.70
2017-05-16T15:10:16.154Z,32.80
2017-05-16T15:12:43.857Z,32.10
2017-05-16T15:15:10.844Z,31.60
2017-05-16T15:17:37.814Z,30.30
2017-05-16T15:20:05.541Z,30.70
2017-05-16T15:22:32.515Z,31.20
2017-05-16T15:24:59.512Z,29.40
2017-05-16T15:27:26.478Z,30.50
2017-05-16T15:29:53.448Z,30.00
2017-05-16T15:32:20.437Z,30.00
2017-05-16T15:34:47.406Z,31.70
2017-05-16T15:37:14.420Z,34.70
2017-05-16T15:39:41.423Z,36.10
2017-05-16T15:42:08.431Z,36.00
2017-05-16T15:44:35.404Z,36.60
2017-05-16T15:47:02.423Z,36.40
2017-05-16T15:49:29.406Z,37.30
2017-05-16T15:51:56.391Z,36.70
2017-05-16T15:54:24.107Z,36.40
2017-05-16T15:56:51.112Z,35.90
2017-05-16T15:59:18.100Z,37.00
2017-05-16T16:01:45.077Z,36.80
2017-05-16T16:04:12.088Z,36.90
2017-05-16T16:06:39.833Z,37.40
2017-05-16T16:09:06.818Z,37.90
2017-05-16T16:11:33.792Z,37.70
2017-05-16T16:14:01.518Z,37.20
2017-05-16T16:16:28.492Z,36.90
2017-05-16T16:18:55.471Z,37.10
2017-05-16T16:21:23.183Z,37.00
2017-05-16T16:23:51.844Z,37.30
2017-05-16T16:26:19.947Z,37.40
2017-05-16T16:28:46.917Z,37.40
2017-05-16T16:31:14.352Z,36.40
2017-05-16T16:33:41.352Z,35.60
2017-05-16T16:36:08.850Z,36.40
2017-05-16T16:38:35.820Z,36.60
2017-05-16T16:41:02.810Z,36.90
2017-05-16T16:43:29.769Z,36.60
2017-05-16T16:45:56.750Z,36.90
2017-05-16T16:48:23.718Z,36.80
2017-05-16T16:50:51.521Z,36.80
2017-05-16T16:53:18.631Z,37.10
2017-05-16T16:55:45.601Z,36.70
2017-05-16T16:58:13.333Z,36.20
2017-05-16T17:00:41.041Z,36.50
2017-05-16T17:03:08.037Z,37.30
2017-05-16T17:05:37.307Z,37.80
2017-05-16T17:08:04.401Z,38.00
2017-05-16T17:10:31.369Z,38.20
2017-05-16T17:12:58.420Z,38.40
2017-05-16T17:15:25.378Z,38.20
2017-05-16T17:17:52.382Z,39.30
2017-05-16T17:20:19.361Z,39.50
2017-05-16T17:22:46.440Z,39.70
2017-05-16T17:25:14.155Z,38.80
2017-05-16T17:27:42.279Z,38.20
2017-05-16T17:30:09.993Z,38.40
2017-05-16T17:32:36.976Z,38.10
2017-05-16T17:35:03.965Z,38.10
2017-05-16T17:37:30.938Z,38.70
2017-05-16T17:39:57.954Z,39.50
2017-05-16T17:42:24.954Z,40.10
2017-05-16T17:44:51.950Z,40.40
2017-05-16T17:47:18.916Z,40.30
2017-05-16T17:49:45.904Z,40.30
2017-05-16T17:52:12.897Z,40.20
2017-05-16T17:54:39.911Z,40.40
2017-05-16T17:57:06.886Z,40.80
2017-05-16T17:59:33.858Z,40.10
2017-05-16T18:02:00.844Z,40.20
2017-05-16T18:04:27.834Z,40.20
2017-05-16T18:06:54.829Z,40.20
2017-05-16T18:09:21.806Z,40.20
2017-05-16T18:11:48.793Z,40.50
2017-05-16T18:14:15.757Z,40.70
2017-05-16T18:16:42.751Z,40.90
2017-05-16T18:19:09.722Z,41.00
2017-05-16T18:21:36.720Z,41.10
2017-05-16T18:24:03.705Z,41.40
2017-05-16T18:26:30.692Z,41.50
2017-05-16T18:28:57.666Z,41.40
2017-05-16T18:31:24.665Z,41.40
2017-05-16T18:33:51.630Z,41.50
2017-05-16T18:36:19.376Z,41.70
2017-05-16T18:38:46.341Z,42.00
2017-05-16T18:41:13.314Z,42.10
2017-05-16T18:43:40.306Z,42.00
2017-05-16T18:46:08.022Z,41.70
2017-05-16T18:48:35.005Z,41.90
2017-05-16T18:51:02.710Z,41.80
2017-05-16T18:53:29.698Z,41.90
2017-05-16T18:55:57.412Z,42.20
2017-05-16T18:58:24.400Z,42.50
2017-05-16T19:00:52.115Z,42.60
2017-05-16T19:03:19.109Z,42.80
2017-05-16T19:05:46.101Z,43.00
2017-05-16T19:08:13.090Z,43.30
2017-05-16T19:10:40.797Z,43.50
2017-05-16T19:13:07.788Z,43.50
2017-05-16T19:15:34.760Z,44.00
2017-05-16T19:18:02.502Z,44.80
2017-05-16T19:20:29.480Z,44.20
2017-05-16T19:22:56.490Z,44.00
2017-05-16T19:25:24.200Z,44.40
2017-05-16T19:27:51.158Z,45.50
2017-05-16T19:30:18.146Z,46.20
2017-05-16T19:32:45.854Z,46.40
2017-05-16T19:35:12.974Z,46.70
2017-05-16T19:37:39.936Z,46.80
2017-05-16T19:40:06.925Z,47.00
2017-05-16T19:42:33.903Z,47.00
2017-05-16T19:45:00.897Z,47.30
2017-05-16T19:47:27.872Z,48.10
2017-05-16T19:49:55.584Z,47.70
2017-05-16T19:52:22.575Z,48.00
2017-05-16T19:54:50.274Z,48.30
2017-05-16T19:57:17.269Z,48.40
2017-05-16T19:59:44.227Z,48.50
2017-05-16T20:02:11.218Z,48.60
2017-05-16T20:04:38.192Z,49.00
2017-05-16T20:07:05.190Z,49.20
2017-05-16T20:09:32.173Z,49.20
2017-05-16T20:11:59.873Z,49.70
2017-05-16T20:14:26.863Z,49.40
2017-05-16T20:16:54.574Z,49.50
2017-05-16T20:19:21.564Z,49.40
2017-05-16T20:21:48.533Z,49.50
2017-05-16T20:24:15.532Z,49.70
2017-05-16T20:26:42.504Z,50.20
2017-05-16T20:29:09.495Z,50.80
2017-05-16T20:31:37.208Z,51.90
2017-05-16T20:34:04.182Z,51.50
2017-05-16T20:36:31.154Z,51.80
2017-05-16T20:38:58.874Z,52.00
2017-05-16T20:41:25.866Z,52.10
2017-05-16T20:43:52.844Z,52.20
2017-05-16T20:46:19.825Z,52.20
2017-05-16T20:48:47.532Z,52.40
2017-05-16T20:51:14.525Z,52.50
2017-05-16T20:53:41.498Z,52.70
2017-05-16T20:56:08.489Z,52.80
2017-05-16T20:58:35.453Z,52.80
2017-05-16T21:01:02.449Z,52.50
2017-05-16T21:03:29.406Z,52.90
2017-05-16T21:05:56.393Z,53.00
2017-05-16T21:08:23.383Z,53.10
2017-05-16T21:10:50.354Z,53.10
2017-05-16T21:13:17.343Z,53.20
2017-05-16T21:15:44.425Z,52.50
2017-05-16T21:18:11.531Z,52.20
2017-05-16T21:20:38.587Z,52.60
2017-05-16T21:23:05.600Z,53.00
2017-05-16T21:25:32.569Z,53.10
2017-05-16T21:27:59.554Z,52.40
2017-05-16T21:30:26.526Z,51.90
2017-05-16T21:32:53.514Z,51.90
2017-05-16T21:35:21.226Z,51.80
2017-05-16T21:37:48.220Z,52.20
2017-05-16T21:40:15.195Z,52.50
2017-05-16T21:42:42.199Z,52.90
2017-05-16T21:45:09.176Z,52.70
2017-05-16T21:47:36.877Z,53.10
2017-05-16T21:50:03.862Z,53.40
2017-05-16T21:52:30.833Z,54.10
2017-05-16T21:54:57.830Z,53.40
2017-05-16T21:57:24.795Z,53.10
2017-05-16T21:59:51.772Z,53.10
2017-05-16T22:02:18.753Z,53.10
2017-05-16T22:04:45.765Z,52.70
2017-05-16T22:07:12.729Z,52.80
2017-05-16T22:09:39.731Z,53.40
2017-05-16T22:12:06.709Z,54.10
2017-05-16T22:14:33.685Z,54.40
2017-05-16T22:17:00.676Z,54.90
2017-05-16T22:19:27.654Z,55.20
2017-05-16T22:21:54.704Z,55.40
2017-05-16T22:24:21.664Z,55.60
2017-05-16T22:26:48.671Z,55.90
2017-05-16T22:29:15.714Z,55.80
2017-05-16T22:31:43.418Z,55.90
2017-05-16T22:34:10.428Z,55.80
2017-05-16T22:36:37.393Z,55.80
2017-05-16T22:39:04.438Z,55.50
2017-05-16T22:41:31.408Z,55.20
2017-05-16T22:43:58.496Z,55.20
2017-05-16T22:46:25.453Z,55.60
2017-05-16T22:48:53.174Z,55.80
2017-05-16T22:51:20.145Z,55.90
2017-05-16T22:53:47.134Z,56.00
2017-05-16T22:56:14.839Z,55.80
2017-05-16T22:58:41.834Z,56.10
2017-05-16T23:01:09.540Z,56.50
2017-05-16T23:03:36.541Z,56.80
2017-05-16T23:06:03.532Z,56.70
2017-05-16T23:08:30.789Z,56.80
2017-05-16T23:10:57.779Z,56.50
2017-05-16T23:13:24.752Z,56.80
2017-05-16T23:15:52.486Z,56.90
2017-05-16T23:18:19.438Z,56.80
2017-05-16T23:20:46.427Z,57.00
2017-05-16T23:23:13.581Z,57.00
2017-05-16T23:25:40.586Z,56.90
2017-05-16T23:28:07.626Z,57.10
2017-05-16T23:30:34.705Z,57.40
2017-05-16T23:33:01.682Z,57.50
2017-05-16T23:35:28.666Z,57.10
2017-05-16T23:37:56.257Z,57.10
2017-05-16T23:40:23.261Z,57.30
2017-05-16T23:42:50.290Z,57.10
2017-05-16T23:45:17.265Z,57.40
2017-05-16T23:47:44.262Z,57.20
2017-05-16T23:50:11.985Z,57.30
2017-05-16T23:52:38.988Z,57.40
2017-05-16T23:55:06.090Z,57.00
2017-05-16T23:57:33.087Z,56.90
